sensor_id;sensor_type;location;lat;lon;timestamp;P1;durP1;ratioP1;P2;durP2;ratioP2
11394;SDS011;5753;54.402;10.220;2023-03-23T00:01:16;15.05;;;10.50;;
11394;SDS011;5753;54.402;10.220;2023-03-23T00:03:47;16.00;;;12.57;;
11394;SDS011;5753;54.402;10.220;2023-03-23T00:06:15;19.38;;;11.30;;
11394;SDS011;5753;54.402;10.220;2023-03-23T00:08:49;21.33;;;15.02;;
11394;SDS011;5753;54.402;10.220;2023-03-23T00:11:21;24.25;;;11.60;;
11394;SDS011;5753;54.402;10.220;2023-03-23T00:13:51;21.95;;;13.77;;
11394;SDS011;5753;54.402;10.220;2023-03-23T00:16:18;19.23;;;13.65;;
11394;SDS011;5753;54.402;10.220;2023-03-23T00:18:54;21.48;;;13.35;;
11394;SDS011;5753;54.402;10.220;2023-03-23T00:21:22;13.90;;;10.15;;
11394;SDS011;5753;54.402;10.220;2023-03-23T00:23:59;14.68;;;11.80;;
11394;SDS011;5753;54.402;10.220;2023-03-23T00:26:27;20.40;;;11.32;;
11394;SDS011;5753;54.402;10.220;2023-03-23T00:28:55;15.65;;;13.13;;
11394;SDS011;5753;54.402;10.220;2023-03-23T00:31:21;15.70;;;12.93;;
11394;SDS011;5753;54.402;10.220;2023-03-23T00:33:48;26.52;;;13.48;;
11394;SDS011;5753;54.402;10.220;2023-03-23T00:36:14;17.35;;;11.63;;
11394;SDS011;5753;54.402;10.220;2023-03-23T00:38:40;16.00;;;11.90;;
11394;SDS011;5753;54.402;10.220;2023-03-23T00:41:06;18.60;;;13.05;;
11394;SDS011;5753;54.402;10.220;2023-03-23T00:43:36;17.50;;;12.48;;
11394;SDS011;5753;54.402;10.220;2023-03-23T00:46:04;26.48;;;15.48;;
11394;SDS011;5753;54.402;10.220;2023-03-23T00:48:34;16.33;;;11.50;;
11394;SDS011;5753;54.402;10.220;2023-03-23T00:51:05;16.20;;;13.75;;
11394;SDS011;5753;54.402;10.220;2023-03-23T00:53:36;20.48;;;12.05;;
11394;SDS011;5753;54.402;10.220;2023-03-23T00:56:04;20.30;;;11.95;;
11394;SDS011;5753;54.402;10.220;2023-03-23T00:58:31;18.65;;;12.07;;
11394;SDS011;5753;54.402;10.220;2023-03-23T01:00:57;19.45;;;16.17;;
11394;SDS011;5753;54.402;10.220;2023-03-23T01:03:24;15.80;;;13.45;;
11394;SDS011;5753;54.402;10.220;2023-03-23T01:05:51;19.30;;;15.73;;
11394;SDS011;5753;54.402;10.220;2023-03-23T01:08:18;24.88;;;12.80;;
11394;SDS011;5753;54.402;10.220;2023-03-23T01:10:45;19.58;;;11.50;;
11394;SDS011;5753;54.402;10.220;2023-03-23T01:13:11;17.63;;;12.20;;
11394;SDS011;5753;54.402;10.220;2023-03-23T01:15:39;24.52;;;15.43;;
11394;SDS011;5753;54.402;10.220;2023-03-23T01:18:05;19.75;;;12.30;;
11394;SDS011;5753;54.402;10.220;2023-03-23T01:20:31;15.82;;;11.45;;
11394;SDS011;5753;54.402;10.220;2023-03-23T01:22:59;21.17;;;13.77;;
11394;SDS011;5753;54.402;10.220;2023-03-23T01:25:29;19.50;;;12.23;;
11394;SDS011;5753;54.402;10.220;2023-03-23T01:27:57;29.45;;;13.15;;
11394;SDS011;5753;54.402;10.220;2023-03-23T01:30:24;15.52;;;11.40;;
11394;SDS011;5753;54.402;10.220;2023-03-23T01:32:51;20.80;;;13.32;;
11394;SDS011;5753;54.402;10.220;2023-03-23T01:35:18;22.85;;;12.63;;
11394;SDS011;5753;54.402;10.220;2023-03-23T01:37:45;16.77;;;12.15;;
11394;SDS011;5753;54.402;10.220;2023-03-23T01:40:12;15.82;;;11.18;;
11394;SDS011;5753;54.402;10.220;2023-03-23T01:42:40;15.80;;;8.55;;
11394;SDS011;5753;54.402;10.220;2023-03-23T01:48:03;15.27;;;11.73;;
11394;SDS011;5753;54.402;10.220;2023-03-23T01:50:41;17.38;;;7.15;;
11394;SDS011;5753;54.402;10.220;2023-03-23T01:53:18;9.88;;;6.80;;
11394;SDS011;5753;54.402;10.220;2023-03-23T01:55:45;10.52;;;7.32;;
11394;SDS011;5753;54.402;10.220;2023-03-23T01:58:17;9.52;;;6.65;;
11394;SDS011;5753;54.402;10.220;2023-03-23T02:03:18;6.40;;;4.93;;
11394;SDS011;5753;54.402;10.220;2023-03-23T02:05:45;6.70;;;4.80;;
11394;SDS011;5753;54.402;10.220;2023-03-23T02:08:11;5.65;;;4.45;;
11394;SDS011;5753;54.402;10.220;2023-03-23T02:10:39;8.52;;;4.38;;
11394;SDS011;5753;54.402;10.220;2023-03-23T02:13:06;4.53;;;3.65;;
11394;SDS011;5753;54.402;10.220;2023-03-23T02:29:23;8.60;;;4.97;;
11394;SDS011;5753;54.402;10.220;2023-03-23T02:35:21;6.88;;;5.70;;
11394;SDS011;5753;54.402;10.220;2023-03-23T02:37:54;7.25;;;5.65;;
11394;SDS011;5753;54.402;10.220;2023-03-23T02:40:40;9.77;;;5.03;;
11394;SDS011;5753;54.402;10.220;2023-03-23T02:43:11;7.63;;;4.20;;
11394;SDS011;5753;54.402;10.220;2023-03-23T02:45:45;8.90;;;6.03;;
11394;SDS011;5753;54.402;10.220;2023-03-23T02:48:12;8.10;;;7.05;;
11394;SDS011;5753;54.402;10.220;2023-03-23T02:50:42;8.02;;;4.32;;
11394;SDS011;5753;54.402;10.220;2023-03-23T02:53:12;9.52;;;5.78;;
11394;SDS011;5753;54.402;10.220;2023-03-23T02:55:43;8.13;;;5.32;;
11394;SDS011;5753;54.402;10.220;2023-03-23T02:58:11;7.70;;;5.07;;
11394;SDS011;5753;54.402;10.220;2023-03-23T03:00:37;15.50;;;7.05;;
11394;SDS011;5753;54.402;10.220;2023-03-23T03:03:05;10.30;;;7.18;;
11394;SDS011;5753;54.402;10.220;2023-03-23T03:05:47;5.78;;;5.07;;
11394;SDS011;5753;54.402;10.220;2023-03-23T03:08:41;6.63;;;4.78;;
11394;SDS011;5753;54.402;10.220;2023-03-23T03:11:17;8.35;;;6.65;;
11394;SDS011;5753;54.402;10.220;2023-03-23T03:14:01;10.07;;;7.05;;
11394;SDS011;5753;54.402;10.220;2023-03-23T03:16:40;11.48;;;5.30;;
11394;SDS011;5753;54.402;10.220;2023-03-23T03:21:54;9.00;;;6.15;;
11394;SDS011;5753;54.402;10.220;2023-03-23T03:24:24;10.60;;;5.30;;
11394;SDS011;5753;54.402;10.220;2023-03-23T03:26:53;11.45;;;6.95;;
11394;SDS011;5753;54.402;10.220;2023-03-23T03:29:25;8.65;;;6.80;;
11394;SDS011;5753;54.402;10.220;2023-03-23T03:34:25;7.65;;;5.55;;
11394;SDS011;5753;54.402;10.220;2023-03-23T03:36:52;16.88;;;6.88;;
11394;SDS011;5753;54.402;10.220;2023-03-23T03:39:23;10.63;;;5.13;;
11394;SDS011;5753;54.402;10.220;2023-03-23T03:41:51;8.95;;;5.68;;
11394;SDS011;5753;54.402;10.220;2023-03-23T03:44:17;9.43;;;6.45;;
11394;SDS011;5753;54.402;10.220;2023-03-23T03:46:43;8.98;;;6.25;;
11394;SDS011;5753;54.402;10.220;2023-03-23T03:49:10;11.10;;;8.00;;
11394;SDS011;5753;54.402;10.220;2023-03-23T03:51:37;9.23;;;5.78;;
11394;SDS011;5753;54.402;10.220;2023-03-23T03:54:05;8.63;;;6.75;;
11394;SDS011;5753;54.402;10.220;2023-03-23T03:56:32;10.35;;;7.88;;
11394;SDS011;5753;54.402;10.220;2023-03-23T03:59:01;7.47;;;5.30;;
11394;SDS011;5753;54.402;10.220;2023-03-23T04:01:27;9.80;;;5.28;;
11394;SDS011;5753;54.402;10.220;2023-03-23T04:03:54;8.02;;;4.88;;
11394;SDS011;5753;54.402;10.220;2023-03-23T04:06:21;7.50;;;4.20;;
11394;SDS011;5753;54.402;10.220;2023-03-23T04:08:47;9.45;;;3.55;;
11394;SDS011;5753;54.402;10.220;2023-03-23T04:11:14;20.38;;;4.60;;
11394;SDS011;5753;54.402;10.220;2023-03-23T04:13:40;5.13;;;3.35;;
11394;SDS011;5753;54.402;10.220;2023-03-23T04:16:07;5.15;;;3.83;;
11394;SDS011;5753;54.402;10.220;2023-03-23T04:18:33;4.38;;;2.75;;
11394;SDS011;5753;54.402;10.220;2023-03-23T04:21:01;7.05;;;3.45;;
11394;SDS011;5753;54.402;10.220;2023-03-23T04:23:28;4.43;;;4.00;;
11394;SDS011;5753;54.402;10.220;2023-03-23T04:25:58;3.53;;;2.08;;
11394;SDS011;5753;54.402;10.220;2023-03-23T04:28:25;4.05;;;3.33;;
11394;SDS011;5753;54.402;10.220;2023-03-23T04:30:53;4.28;;;2.85;;
11394;SDS011;5753;54.402;10.220;2023-03-23T04:33:20;4.57;;;2.63;;
11394;SDS011;5753;54.402;10.220;2023-03-23T04:35:49;3.30;;;1.88;;
11394;SDS011;5753;54.402;10.220;2023-03-23T04:38:17;4.35;;;2.75;;
11394;SDS011;5753;54.402;10.220;2023-03-23T04:40:45;6.70;;;2.25;;
11394;SDS011;5753;54.402;10.220;2023-03-23T04:43:12;4.00;;;2.75;;
11394;SDS011;5753;54.402;10.220;2023-03-23T04:45:39;4.63;;;3.45;;
11394;SDS011;5753;54.402;10.220;2023-03-23T04:48:11;5.45;;;3.30;;
11394;SDS011;5753;54.402;10.220;2023-03-23T04:50:37;2.20;;;2.00;;
11394;SDS011;5753;54.402;10.220;2023-03-23T04:53:04;6.05;;;2.22;;
11394;SDS011;5753;54.402;10.220;2023-03-23T04:55:34;1.98;;;0.95;;
11394;SDS011;5753;54.402;10.220;2023-03-23T04:58:02;1.45;;;0.95;;
11394;SDS011;5753;54.402;10.220;2023-03-23T05:00:30;1.83;;;1.30;;
11394;SDS011;5753;54.402;10.220;2023-03-23T05:03:00;2.13;;;1.17;;
11394;SDS011;5753;54.402;10.220;2023-03-23T05:05:27;2.20;;;1.05;;
11394;SDS011;5753;54.402;10.220;2023-03-23T05:07:57;1.50;;;0.77;;
11394;SDS011;5753;54.402;10.220;2023-03-23T05:10:23;3.10;;;0.73;;
11394;SDS011;5753;54.402;10.220;2023-03-23T05:12:49;1.67;;;0.85;;
11394;SDS011;5753;54.402;10.220;2023-03-23T05:15:17;0.50;;;0.45;;
11394;SDS011;5753;54.402;10.220;2023-03-23T05:17:43;0.80;;;0.70;;
11394;SDS011;5753;54.402;10.220;2023-03-23T05:20:10;1.77;;;0.68;;
11394;SDS011;5753;54.402;10.220;2023-03-23T05:22:39;1.02;;;0.50;;
11394;SDS011;5753;54.402;10.220;2023-03-23T05:25:07;1.63;;;1.52;;
11394;SDS011;5753;54.402;10.220;2023-03-23T05:27:34;0.95;;;0.90;;
11394;SDS011;5753;54.402;10.220;2023-03-23T05:30:00;1.85;;;1.67;;
11394;SDS011;5753;54.402;10.220;2023-03-23T05:32:27;1.70;;;1.33;;
11394;SDS011;5753;54.402;10.220;2023-03-23T05:34:55;3.03;;;1.70;;
11394;SDS011;5753;54.402;10.220;2023-03-23T05:37:24;1.90;;;1.80;;
11394;SDS011;5753;54.402;10.220;2023-03-23T05:39:53;3.92;;;2.85;;
11394;SDS011;5753;54.402;10.220;2023-03-23T05:42:23;5.72;;;3.20;;
11394;SDS011;5753;54.402;10.220;2023-03-23T05:44:49;10.73;;;4.68;;
11394;SDS011;5753;54.402;10.220;2023-03-23T05:47:16;5.38;;;4.18;;
11394;SDS011;5753;54.402;10.220;2023-03-23T05:49:42;11.32;;;7.07;;
11394;SDS011;5753;54.402;10.220;2023-03-23T05:52:08;9.48;;;5.70;;
11394;SDS011;5753;54.402;10.220;2023-03-23T05:54:35;8.55;;;7.55;;
11394;SDS011;5753;54.402;10.220;2023-03-23T05:57:02;11.95;;;8.35;;
11394;SDS011;5753;54.402;10.220;2023-03-23T05:59:28;18.23;;;9.15;;
11394;SDS011;5753;54.402;10.220;2023-03-23T06:01:54;13.63;;;10.32;;
11394;SDS011;5753;54.402;10.220;2023-03-23T06:04:22;12.80;;;11.10;;
11394;SDS011;5753;54.402;10.220;2023-03-23T06:06:50;14.13;;;12.73;;
11394;SDS011;5753;54.402;10.220;2023-03-23T06:09:17;17.50;;;14.50;;
11394;SDS011;5753;54.402;10.220;2023-03-23T06:11:44;14.20;;;12.13;;
11394;SDS011;5753;54.402;10.220;2023-03-23T06:14:11;18.27;;;12.95;;
11394;SDS011;5753;54.402;10.220;2023-03-23T06:16:37;21.48;;;14.32;;
11394;SDS011;5753;54.402;10.220;2023-03-23T06:19:03;21.55;;;13.27;;
11394;SDS011;5753;54.402;10.220;2023-03-23T06:21:30;18.60;;;12.40;;
11394;SDS011;5753;54.402;10.220;2023-03-23T06:23:56;16.08;;;13.07;;
11394;SDS011;5753;54.402;10.220;2023-03-23T06:26:25;14.43;;;11.70;;
11394;SDS011;5753;54.402;10.220;2023-03-23T06:28:56;21.20;;;14.65;;
11394;SDS011;5753;54.402;10.220;2023-03-23T06:31:23;19.25;;;12.38;;
11394;SDS011;5753;54.402;10.220;2023-03-23T06:33:51;20.35;;;15.07;;
11394;SDS011;5753;54.402;10.220;2023-03-23T06:36:17;24.40;;;14.75;;
11394;SDS011;5753;54.402;10.220;2023-03-23T06:38:44;18.73;;;12.75;;
11394;SDS011;5753;54.402;10.220;2023-03-23T06:41:11;23.80;;;16.00;;
11394;SDS011;5753;54.402;10.220;2023-03-23T06:43:37;21.30;;;12.77;;
11394;SDS011;5753;54.402;10.220;2023-03-23T06:46:05;22.70;;;13.55;;
11394;SDS011;5753;54.402;10.220;2023-03-23T06:48:31;17.40;;;14.15;;
11394;SDS011;5753;54.402;10.220;2023-03-23T06:50:58;24.10;;;12.75;;
11394;SDS011;5753;54.402;10.220;2023-03-23T06:53:24;14.90;;;10.73;;
11394;SDS011;5753;54.402;10.220;2023-03-23T06:55:50;15.25;;;13.45;;
11394;SDS011;5753;54.402;10.220;2023-03-23T06:58:16;14.43;;;12.43;;
11394;SDS011;5753;54.402;10.220;2023-03-23T07:00:42;14.98;;;12.40;;
11394;SDS011;5753;54.402;10.220;2023-03-23T07:03:09;13.60;;;9.68;;
11394;SDS011;5753;54.402;10.220;2023-03-23T07:05:36;14.93;;;12.60;;
11394;SDS011;5753;54.402;10.220;2023-03-23T07:08:03;13.18;;;9.80;;
11394;SDS011;5753;54.402;10.220;2023-03-23T07:10:29;19.65;;;12.10;;
11394;SDS011;5753;54.402;10.220;2023-03-23T07:12:56;17.42;;;11.60;;
11394;SDS011;5753;54.402;10.220;2023-03-23T07:15:24;20.10;;;14.68;;
11394;SDS011;5753;54.402;10.220;2023-03-23T07:17:50;16.40;;;10.38;;
11394;SDS011;5753;54.402;10.220;2023-03-23T07:20:16;14.05;;;10.90;;
11394;SDS011;5753;54.402;10.220;2023-03-23T07:22:42;13.65;;;8.63;;
11394;SDS011;5753;54.402;10.220;2023-03-23T07:25:09;9.88;;;7.53;;
11394;SDS011;5753;54.402;10.220;2023-03-23T07:27:35;12.00;;;8.15;;
11394;SDS011;5753;54.402;10.220;2023-03-23T07:30:02;13.15;;;9.27;;
11394;SDS011;5753;54.402;10.220;2023-03-23T07:32:29;13.77;;;7.28;;
11394;SDS011;5753;54.402;10.220;2023-03-23T07:34:56;7.90;;;6.47;;
11394;SDS011;5753;54.402;10.220;2023-03-23T07:37:22;8.95;;;7.00;;
11394;SDS011;5753;54.402;10.220;2023-03-23T07:39:48;8.75;;;6.43;;
11394;SDS011;5753;54.402;10.220;2023-03-23T07:42:14;10.13;;;7.43;;
11394;SDS011;5753;54.402;10.220;2023-03-23T07:44:40;11.27;;;7.72;;
11394;SDS011;5753;54.402;10.220;2023-03-23T07:47:06;12.20;;;8.73;;
11394;SDS011;5753;54.402;10.220;2023-03-23T07:49:33;13.10;;;8.73;;
11394;SDS011;5753;54.402;10.220;2023-03-23T07:51:59;10.68;;;7.57;;
11394;SDS011;5753;54.402;10.220;2023-03-23T07:54:27;10.30;;;8.32;;
11394;SDS011;5753;54.402;10.220;2023-03-23T07:56:54;10.30;;;7.53;;
11394;SDS011;5753;54.402;10.220;2023-03-23T07:59:20;9.77;;;6.30;;
11394;SDS011;5753;54.402;10.220;2023-03-23T08:01:47;7.38;;;4.93;;
11394;SDS011;5753;54.402;10.220;2023-03-23T08:04:13;6.45;;;5.30;;
11394;SDS011;5753;54.402;10.220;2023-03-23T08:06:40;5.10;;;4.60;;
11394;SDS011;5753;54.402;10.220;2023-03-23T08:09:07;6.53;;;4.13;;
11394;SDS011;5753;54.402;10.220;2023-03-23T08:11:37;7.80;;;5.32;;
11394;SDS011;5753;54.402;10.220;2023-03-23T08:14:04;9.02;;;5.68;;
11394;SDS011;5753;54.402;10.220;2023-03-23T08:16:31;9.10;;;5.18;;
11394;SDS011;5753;54.402;10.220;2023-03-23T08:18:58;8.13;;;5.20;;
11394;SDS011;5753;54.402;10.220;2023-03-23T08:21:25;4.15;;;3.00;;
11394;SDS011;5753;54.402;10.220;2023-03-23T08:23:51;7.82;;;5.28;;
11394;SDS011;5753;54.402;10.220;2023-03-23T08:26:17;6.03;;;3.85;;
11394;SDS011;5753;54.402;10.220;2023-03-23T08:28:44;5.60;;;3.35;;
11394;SDS011;5753;54.402;10.220;2023-03-23T08:31:12;4.15;;;2.75;;
11394;SDS011;5753;54.402;10.220;2023-03-23T08:33:39;6.93;;;3.67;;
11394;SDS011;5753;54.402;10.220;2023-03-23T08:36:06;11.48;;;3.00;;
11394;SDS011;5753;54.402;10.220;2023-03-23T08:38:33;8.30;;;2.33;;
11394;SDS011;5753;54.402;10.220;2023-03-23T08:41:01;4.57;;;2.78;;
11394;SDS011;5753;54.402;10.220;2023-03-23T08:43:29;9.95;;;3.08;;
11394;SDS011;5753;54.402;10.220;2023-03-23T08:45:57;3.08;;;2.05;;
11394;SDS011;5753;54.402;10.220;2023-03-23T08:48:24;13.13;;;4.00;;
11394;SDS011;5753;54.402;10.220;2023-03-23T08:50:50;6.75;;;3.45;;
11394;SDS011;5753;54.402;10.220;2023-03-23T08:53:20;9.63;;;2.45;;
11394;SDS011;5753;54.402;10.220;2023-03-23T08:55:46;4.43;;;2.72;;
11394;SDS011;5753;54.402;10.220;2023-03-23T08:58:14;9.20;;;2.53;;
11394;SDS011;5753;54.402;10.220;2023-03-23T09:00:40;8.35;;;4.03;;
11394;SDS011;5753;54.402;10.220;2023-03-23T09:03:07;9.77;;;3.47;;
11394;SDS011;5753;54.402;10.220;2023-03-23T09:05:33;7.85;;;1.70;;
11394;SDS011;5753;54.402;10.220;2023-03-23T09:08:00;7.70;;;3.55;;
11394;SDS011;5753;54.402;10.220;2023-03-23T09:10:28;7.65;;;4.72;;
11394;SDS011;5753;54.402;10.220;2023-03-23T09:12:58;12.10;;;4.30;;
11394;SDS011;5753;54.402;10.220;2023-03-23T09:15:24;6.22;;;3.22;;
11394;SDS011;5753;54.402;10.220;2023-03-23T09:17:51;4.75;;;2.40;;
11394;SDS011;5753;54.402;10.220;2023-03-23T09:20:20;7.53;;;1.95;;
11394;SDS011;5753;54.402;10.220;2023-03-23T09:22:52;9.23;;;2.03;;
11394;SDS011;5753;54.402;10.220;2023-03-23T09:25:20;8.07;;;3.03;;
11394;SDS011;5753;54.402;10.220;2023-03-23T09:27:54;12.60;;;3.53;;
11394;SDS011;5753;54.402;10.220;2023-03-23T09:30:27;7.50;;;2.00;;
11394;SDS011;5753;54.402;10.220;2023-03-23T09:32:55;7.80;;;3.05;;
11394;SDS011;5753;54.402;10.220;2023-03-23T09:35:23;7.60;;;3.72;;
11394;SDS011;5753;54.402;10.220;2023-03-23T09:37:50;8.10;;;3.47;;
11394;SDS011;5753;54.402;10.220;2023-03-23T09:40:18;5.43;;;1.92;;
11394;SDS011;5753;54.402;10.220;2023-03-23T09:46:02;3.30;;;2.15;;
11394;SDS011;5753;54.402;10.220;2023-03-23T09:51:24;10.45;;;3.05;;
11394;SDS011;5753;54.402;10.220;2023-03-23T09:53:54;6.93;;;3.22;;
11394;SDS011;5753;54.402;10.220;2023-03-23T09:56:30;8.90;;;3.42;;
11394;SDS011;5753;54.402;10.220;2023-03-23T10:01:47;4.30;;;2.75;;
11394;SDS011;5753;54.402;10.220;2023-03-23T10:09:50;5.53;;;2.38;;
11394;SDS011;5753;54.402;10.220;2023-03-23T10:12:42;15.75;;;6.30;;
11394;SDS011;5753;54.402;10.220;2023-03-23T10:17:58;7.72;;;2.67;;
11394;SDS011;5753;54.402;10.220;2023-03-23T10:20:46;8.63;;;3.45;;
11394;SDS011;5753;54.402;10.220;2023-03-23T10:25:50;6.63;;;3.42;;
11394;SDS011;5753;54.402;10.220;2023-03-23T10:28:24;4.35;;;3.58;;
11394;SDS011;5753;54.402;10.220;2023-03-23T10:31:00;8.02;;;2.80;;
11394;SDS011;5753;54.402;10.220;2023-03-23T10:36:30;6.63;;;2.17;;
11394;SDS011;5753;54.402;10.220;2023-03-23T10:41:31;3.83;;;1.35;;
11394;SDS011;5753;54.402;10.220;2023-03-23T10:43:57;8.45;;;2.88;;
11394;SDS011;5753;54.402;10.220;2023-03-23T10:46:49;9.35;;;2.50;;
11394;SDS011;5753;54.402;10.220;2023-03-23T10:49:21;7.55;;;2.63;;
11394;SDS011;5753;54.402;10.220;2023-03-23T10:54:51;2.47;;;1.95;;
11394;SDS011;5753;54.402;10.220;2023-03-23T11:02:41;6.43;;;2.30;;
11394;SDS011;5753;54.402;10.220;2023-03-23T11:05:52;12.60;;;3.78;;
11394;SDS011;5753;54.402;10.220;2023-03-23T11:08:09;6.32;;;3.13;;
11394;SDS011;5753;54.402;10.220;2023-03-23T11:10:40;8.52;;;2.58;;
11394;SDS011;5753;54.402;10.220;2023-03-23T11:13:31;7.20;;;2.00;;
11394;SDS011;5753;54.402;10.220;2023-03-23T11:15:58;5.32;;;2.15;;
11394;SDS011;5753;54.402;10.220;2023-03-23T11:18:27;6.40;;;3.97;;
11394;SDS011;5753;54.402;10.220;2023-03-23T11:21:03;19.40;;;3.88;;
11394;SDS011;5753;54.402;10.220;2023-03-23T11:23:34;10.77;;;3.25;;
11394;SDS011;5753;54.402;10.220;2023-03-23T11:28:58;17.70;;;2.20;;
11394;SDS011;5753;54.402;10.220;2023-03-23T11:31:35;5.97;;;2.97;;
11394;SDS011;5753;54.402;10.220;2023-03-23T11:34:04;5.23;;;2.57;;
11394;SDS011;5753;54.402;10.220;2023-03-23T11:36:37;10.20;;;2.60;;
11394;SDS011;5753;54.402;10.220;2023-03-23T11:41:55;6.00;;;2.78;;
11394;SDS011;5753;54.402;10.220;2023-03-23T11:44:24;8.77;;;1.98;;
11394;SDS011;5753;54.402;10.220;2023-03-23T11:49:59;23.13;;;3.97;;
11394;SDS011;5753;54.402;10.220;2023-03-23T11:52:44;10.85;;;1.80;;
11394;SDS011;5753;54.402;10.220;2023-03-23T11:55:49;5.57;;;2.38;;
11394;SDS011;5753;54.402;10.220;2023-03-23T11:58:22;15.77;;;3.00;;
11394;SDS011;5753;54.402;10.220;2023-03-23T12:00:51;7.05;;;3.65;;
11394;SDS011;5753;54.402;10.220;2023-03-23T12:03:30;15.05;;;3.03;;
11394;SDS011;5753;54.402;10.220;2023-03-23T12:19:18;19.45;;;3.33;;
11394;SDS011;5753;54.402;10.220;2023-03-23T12:25:12;9.85;;;3.70;;
11394;SDS011;5753;54.402;10.220;2023-03-23T12:38:35;14.95;;;4.03;;
11394;SDS011;5753;54.402;10.220;2023-03-23T12:47:07;7.72;;;3.70;;
11394;SDS011;5753;54.402;10.220;2023-03-23T12:57:14;16.85;;;5.07;;
11394;SDS011;5753;54.402;10.220;2023-03-23T13:00:05;17.80;;;5.55;;
11394;SDS011;5753;54.402;10.220;2023-03-23T13:02:40;7.82;;;3.75;;
11394;SDS011;5753;54.402;10.220;2023-03-23T13:07:53;10.35;;;5.15;;
11394;SDS011;5753;54.402;10.220;2023-03-23T13:10:42;11.73;;;3.05;;
11394;SDS011;5753;54.402;10.220;2023-03-23T13:22:01;10.30;;;4.13;;
11394;SDS011;5753;54.402;10.220;2023-03-23T13:24:36;17.08;;;5.07;;
11394;SDS011;5753;54.402;10.220;2023-03-23T13:27:14;6.63;;;3.08;;
11394;SDS011;5753;54.402;10.220;2023-03-23T13:29:45;10.15;;;3.85;;
11394;SDS011;5753;54.402;10.220;2023-03-23T13:32:12;12.98;;;5.50;;
11394;SDS011;5753;54.402;10.220;2023-03-23T13:34:42;14.38;;;4.15;;
11394;SDS011;5753;54.402;10.220;2023-03-23T13:37:19;10.85;;;4.30;;
11394;SDS011;5753;54.402;10.220;2023-03-23T13:42:30;13.38;;;4.70;;
11394;SDS011;5753;54.402;10.220;2023-03-23T13:47:47;12.23;;;4.65;;
11394;SDS011;5753;54.402;10.220;2023-03-23T14:03:05;19.92;;;7.22;;
11394;SDS011;5753;54.402;10.220;2023-03-23T14:08:10;13.30;;;5.40;;
11394;SDS011;5753;54.402;10.220;2023-03-23T14:16:01;20.30;;;3.75;;
11394;SDS011;5753;54.402;10.220;2023-03-23T14:18:39;12.77;;;5.07;;
11394;SDS011;5753;54.402;10.220;2023-03-23T14:21:16;15.73;;;4.72;;
11394;SDS011;5753;54.402;10.220;2023-03-23T14:23:48;20.25;;;6.15;;
11394;SDS011;5753;54.402;10.220;2023-03-23T14:26:17;13.23;;;5.10;;
11394;SDS011;5753;54.402;10.220;2023-03-23T14:28:46;13.82;;;4.38;;
11394;SDS011;5753;54.402;10.220;2023-03-23T14:33:50;16.92;;;5.13;;
11394;SDS011;5753;54.402;10.220;2023-03-23T14:36:22;13.07;;;3.97;;
11394;SDS011;5753;54.402;10.220;2023-03-23T14:39:04;16.15;;;3.78;;
11394;SDS011;5753;54.402;10.220;2023-03-23T14:41:50;13.20;;;4.72;;
11394;SDS011;5753;54.402;10.220;2023-03-23T14:44:21;12.73;;;5.68;;
11394;SDS011;5753;54.402;10.220;2023-03-23T14:46:51;13.60;;;4.75;;
11394;SDS011;5753;54.402;10.220;2023-03-23T14:49:21;14.35;;;6.43;;
11394;SDS011;5753;54.402;10.220;2023-03-23T14:51:56;17.73;;;5.47;;
11394;SDS011;5753;54.402;10.220;2023-03-23T14:54:27;13.43;;;6.88;;
11394;SDS011;5753;54.402;10.220;2023-03-23T14:57:02;7.63;;;3.13;;
11394;SDS011;5753;54.402;10.220;2023-03-23T14:59:35;21.23;;;6.07;;
11394;SDS011;5753;54.402;10.220;2023-03-23T15:02:04;8.07;;;3.58;;
11394;SDS011;5753;54.402;10.220;2023-03-23T15:04:35;19.05;;;6.60;;
11394;SDS011;5753;54.402;10.220;2023-03-23T15:07:03;11.63;;;4.43;;
11394;SDS011;5753;54.402;10.220;2023-03-23T15:09:31;7.45;;;3.65;;
11394;SDS011;5753;54.402;10.220;2023-03-23T15:12:00;13.95;;;5.15;;
11394;SDS011;5753;54.402;10.220;2023-03-23T15:14:29;13.23;;;6.07;;
11394;SDS011;5753;54.402;10.220;2023-03-23T15:17:00;20.02;;;4.95;;
11394;SDS011;5753;54.402;10.220;2023-03-23T15:19:40;13.38;;;4.18;;
11394;SDS011;5753;54.402;10.220;2023-03-23T15:24:43;9.77;;;3.97;;
11394;SDS011;5753;54.402;10.220;2023-03-23T15:27:14;13.18;;;4.68;;
11394;SDS011;5753;54.402;10.220;2023-03-23T15:29:48;13.38;;;4.72;;
11394;SDS011;5753;54.402;10.220;2023-03-23T15:32:24;6.82;;;3.72;;
11394;SDS011;5753;54.402;10.220;2023-03-23T15:34:56;12.55;;;2.85;;
11394;SDS011;5753;54.402;10.220;2023-03-23T15:37:30;15.18;;;4.45;;
11394;SDS011;5753;54.402;10.220;2023-03-23T15:39:57;7.82;;;5.05;;
11394;SDS011;5753;54.402;10.220;2023-03-23T15:42:32;10.13;;;3.45;;
11394;SDS011;5753;54.402;10.220;2023-03-23T15:52:57;10.93;;;4.85;;
11394;SDS011;5753;54.402;10.220;2023-03-23T15:55:25;10.38;;;3.83;;
11394;SDS011;5753;54.402;10.220;2023-03-23T15:58:00;14.52;;;4.72;;
11394;SDS011;5753;54.402;10.220;2023-03-23T16:03:00;16.05;;;4.57;;
11394;SDS011;5753;54.402;10.220;2023-03-23T16:05:29;33.55;;;7.35;;
11394;SDS011;5753;54.402;10.220;2023-03-23T16:07:56;24.23;;;6.18;;
11394;SDS011;5753;54.402;10.220;2023-03-23T16:10:23;14.10;;;3.72;;
11394;SDS011;5753;54.402;10.220;2023-03-23T16:12:50;19.90;;;4.40;;
11394;SDS011;5753;54.402;10.220;2023-03-23T16:15:16;17.40;;;4.75;;
11394;SDS011;5753;54.402;10.220;2023-03-23T16:17:43;15.13;;;4.72;;
11394;SDS011;5753;54.402;10.220;2023-03-23T16:20:17;17.13;;;3.80;;
11394;SDS011;5753;54.402;10.220;2023-03-23T16:22:45;14.43;;;4.20;;
11394;SDS011;5753;54.402;10.220;2023-03-23T16:25:12;15.00;;;5.78;;
11394;SDS011;5753;54.402;10.220;2023-03-23T16:27:39;17.05;;;4.28;;
11394;SDS011;5753;54.402;10.220;2023-03-23T16:30:14;9.15;;;3.90;;
11394;SDS011;5753;54.402;10.220;2023-03-23T16:32:46;10.98;;;5.25;;
11394;SDS011;5753;54.402;10.220;2023-03-23T16:35:13;13.00;;;4.38;;
11394;SDS011;5753;54.402;10.220;2023-03-23T16:37:47;20.08;;;5.45;;
11394;SDS011;5753;54.402;10.220;2023-03-23T16:40:17;13.27;;;4.90;;
11394;SDS011;5753;54.402;10.220;2023-03-23T16:42:44;24.65;;;8.30;;
11394;SDS011;5753;54.402;10.220;2023-03-23T16:45:14;12.85;;;5.85;;
11394;SDS011;5753;54.402;10.220;2023-03-23T16:47:41;18.00;;;6.07;;
11394;SDS011;5753;54.402;10.220;2023-03-23T16:50:09;14.20;;;5.07;;
11394;SDS011;5753;54.402;10.220;2023-03-23T16:52:41;10.77;;;3.33;;
11394;SDS011;5753;54.402;10.220;2023-03-23T16:55:09;7.97;;;4.40;;
11394;SDS011;5753;54.402;10.220;2023-03-23T16:57:37;19.77;;;7.32;;
11394;SDS011;5753;54.402;10.220;2023-03-23T17:00:05;13.90;;;5.07;;
11394;SDS011;5753;54.402;10.220;2023-03-23T17:02:33;11.57;;;4.53;;
11394;SDS011;5753;54.402;10.220;2023-03-23T17:05:00;12.50;;;4.40;;
11394;SDS011;5753;54.402;10.220;2023-03-23T17:07:27;17.77;;;5.78;;
11394;SDS011;5753;54.402;10.220;2023-03-23T17:09:53;14.52;;;4.40;;
11394;SDS011;5753;54.402;10.220;2023-03-23T17:12:19;8.40;;;4.50;;
11394;SDS011;5753;54.402;10.220;2023-03-23T17:14:46;6.78;;;3.58;;
11394;SDS011;5753;54.402;10.220;2023-03-23T17:17:12;16.33;;;6.53;;
11394;SDS011;5753;54.402;10.220;2023-03-23T17:19:38;15.35;;;4.60;;
11394;SDS011;5753;54.402;10.220;2023-03-23T17:22:04;17.58;;;3.90;;
11394;SDS011;5753;54.402;10.220;2023-03-23T17:24:31;23.70;;;4.53;;
11394;SDS011;5753;54.402;10.220;2023-03-23T17:26:57;14.18;;;4.82;;
11394;SDS011;5753;54.402;10.220;2023-03-23T17:29:23;8.38;;;3.83;;
11394;SDS011;5753;54.402;10.220;2023-03-23T17:31:49;7.55;;;3.13;;
11394;SDS011;5753;54.402;10.220;2023-03-23T17:34:16;22.63;;;4.53;;
11394;SDS011;5753;54.402;10.220;2023-03-23T17:36:42;10.85;;;5.53;;